sensor_id;sensor_type;location;lat;lon;timestamp;P1;durP1;ratioP1;P2;durP2;ratioP2
7807;SDS011;3949;49.254;8.894;2023-03-31T00:00:56;5.87;;;2.37;;
7807;SDS011;3949;49.254;8.894;2023-03-31T00:03:24;4.87;;;1.70;;
7807;SDS011;3949;49.254;8.894;2023-03-31T00:05:54;5.70;;;1.80;;
7807;SDS011;3949;49.254;8.894;2023-03-31T00:08:22;5.50;;;2.20;;
7807;SDS011;3949;49.254;8.894;2023-03-31T00:10:48;6.07;;;2.07;;
7807;SDS011;3949;49.254;8.894;2023-03-31T00:13:14;6.17;;;2.50;;
7807;SDS011;3949;49.254;8.894;2023-03-31T00:15:40;4.77;;;2.10;;
7807;SDS011;3949;49.254;8.894;2023-03-31T00:18:06;5.37;;;2.10;;
7807;SDS011;3949;49.254;8.894;2023-03-31T00:20:32;5.07;;;2.00;;
7807;SDS011;3949;49.254;8.894;2023-03-31T00:23:02;5.43;;;2.07;;
7807;SDS011;3949;49.254;8.894;2023-03-31T00:25:30;5.10;;;2.10;;
7807;SDS011;3949;49.254;8.894;2023-03-31T00:27:56;2.23;;;1.70;;
7807;SDS011;3949;49.254;8.894;2023-03-31T00:30:22;7.57;;;2.10;;
7807;SDS011;3949;49.254;8.894;2023-03-31T00:32:48;6.67;;;2.40;;
7807;SDS011;3949;49.254;8.894;2023-03-31T00:35:14;3.33;;;1.90;;
7807;SDS011;3949;49.254;8.894;2023-03-31T00:37:40;4.93;;;1.87;;
7807;SDS011;3949;49.254;8.894;2023-03-31T00:40:07;4.50;;;1.90;;
7807;SDS011;3949;49.254;8.894;2023-03-31T00:42:37;4.00;;;2.27;;
7807;SDS011;3949;49.254;8.894;2023-03-31T00:45:20;4.70;;;1.87;;
7807;SDS011;3949;49.254;8.894;2023-03-31T00:47:51;6.93;;;2.27;;
7807;SDS011;3949;49.254;8.894;2023-03-31T00:50:19;4.70;;;1.93;;
7807;SDS011;3949;49.254;8.894;2023-03-31T00:52:47;3.87;;;1.67;;
7807;SDS011;3949;49.254;8.894;2023-03-31T00:55:15;4.30;;;1.70;;
7807;SDS011;3949;49.254;8.894;2023-03-31T00:57:42;8.23;;;1.97;;
7807;SDS011;3949;49.254;8.894;2023-03-31T01:00:11;3.83;;;1.50;;
7807;SDS011;3949;49.254;8.894;2023-03-31T01:02:42;4.30;;;1.73;;
7807;SDS011;3949;49.254;8.894;2023-03-31T01:05:16;6.70;;;2.00;;
7807;SDS011;3949;49.254;8.894;2023-03-31T01:07:43;5.43;;;1.83;;
7807;SDS011;3949;49.254;8.894;2023-03-31T01:10:11;2.83;;;1.67;;
7807;SDS011;3949;49.254;8.894;2023-03-31T01:12:38;6.37;;;1.90;;
7807;SDS011;3949;49.254;8.894;2023-03-31T01:15:06;7.00;;;1.63;;
7807;SDS011;3949;49.254;8.894;2023-03-31T01:17:32;5.57;;;2.13;;
7807;SDS011;3949;49.254;8.894;2023-03-31T01:32:59;5.10;;;1.93;;
7807;SDS011;3949;49.254;8.894;2023-03-31T01:43:30;3.97;;;1.70;;
7807;SDS011;3949;49.254;8.894;2023-03-31T01:45:51;4.47;;;1.60;;
7807;SDS011;3949;49.254;8.894;2023-03-31T01:48:27;5.00;;;1.90;;
7807;SDS011;3949;49.254;8.894;2023-03-31T02:03:49;3.40;;;1.63;;
7807;SDS011;3949;49.254;8.894;2023-03-31T02:06:20;3.50;;;1.60;;
7807;SDS011;3949;49.254;8.894;2023-03-31T02:08:49;2.90;;;1.20;;
7807;SDS011;3949;49.254;8.894;2023-03-31T02:11:17;3.77;;;1.70;;
7807;SDS011;3949;49.254;8.894;2023-03-31T02:13:44;4.73;;;1.50;;
7807;SDS011;3949;49.254;8.894;2023-03-31T02:16:12;4.47;;;2.23;;
7807;SDS011;3949;49.254;8.894;2023-03-31T02:18:39;3.77;;;1.70;;
7807;SDS011;3949;49.254;8.894;2023-03-31T02:21:06;4.27;;;1.60;;
7807;SDS011;3949;49.254;8.894;2023-03-31T02:23:32;5.30;;;1.80;;
7807;SDS011;3949;49.254;8.894;2023-03-31T02:26:02;2.80;;;1.33;;
7807;SDS011;3949;49.254;8.894;2023-03-31T02:28:30;4.23;;;1.60;;
7807;SDS011;3949;49.254;8.894;2023-03-31T02:33:25;3.63;;;1.30;;
7807;SDS011;3949;49.254;8.894;2023-03-31T02:35:52;4.53;;;1.77;;
7807;SDS011;3949;49.254;8.894;2023-03-31T02:38:18;2.90;;;1.60;;
7807;SDS011;3949;49.254;8.894;2023-03-31T02:40:44;6.40;;;4.13;;
7807;SDS011;3949;49.254;8.894;2023-03-31T02:43:10;4.43;;;1.57;;
7807;SDS011;3949;49.254;8.894;2023-03-31T02:48:03;6.40;;;1.80;;
7807;SDS011;3949;49.254;8.894;2023-03-31T02:50:32;3.63;;;1.40;;
7807;SDS011;3949;49.254;8.894;2023-03-31T03:03:25;4.57;;;2.03;;
7807;SDS011;3949;49.254;8.894;2023-03-31T03:08:28;4.93;;;1.70;;
7807;SDS011;3949;49.254;8.894;2023-03-31T03:11:13;4.73;;;1.70;;
7807;SDS011;3949;49.254;8.894;2023-03-31T03:13:45;6.33;;;1.80;;
7807;SDS011;3949;49.254;8.894;2023-03-31T03:19:20;3.37;;;1.90;;
7807;SDS011;3949;49.254;8.894;2023-03-31T03:21:46;2.40;;;1.67;;
7807;SDS011;3949;49.254;8.894;2023-03-31T03:24:14;3.40;;;1.90;;
7807;SDS011;3949;49.254;8.894;2023-03-31T03:26:41;3.90;;;1.70;;
7807;SDS011;3949;49.254;8.894;2023-03-31T03:29:08;4.47;;;1.60;;
7807;SDS011;3949;49.254;8.894;2023-03-31T03:31:35;3.23;;;1.37;;
7807;SDS011;3949;49.254;8.894;2023-03-31T03:34:01;4.93;;;1.80;;
7807;SDS011;3949;49.254;8.894;2023-03-31T03:36:27;4.40;;;2.10;;
7807;SDS011;3949;49.254;8.894;2023-03-31T03:38:53;3.30;;;1.87;;
7807;SDS011;3949;49.254;8.894;2023-03-31T03:41:19;4.50;;;2.10;;
7807;SDS011;3949;49.254;8.894;2023-03-31T03:43:45;3.80;;;2.20;;
7807;SDS011;3949;49.254;8.894;2023-03-31T03:46:11;5.13;;;3.20;;
7807;SDS011;3949;49.254;8.894;2023-03-31T03:48:37;4.50;;;2.57;;
7807;SDS011;3949;49.254;8.894;2023-03-31T03:51:03;5.67;;;2.70;;
7807;SDS011;3949;49.254;8.894;2023-03-31T03:53:30;4.37;;;2.10;;
7807;SDS011;3949;49.254;8.894;2023-03-31T03:55:56;4.23;;;2.10;;
7807;SDS011;3949;49.254;8.894;2023-03-31T03:58:23;4.60;;;2.27;;
7807;SDS011;3949;49.254;8.894;2023-03-31T04:00:49;2.93;;;1.97;;
7807;SDS011;3949;49.254;8.894;2023-03-31T04:03:15;6.20;;;2.27;;
7807;SDS011;3949;49.254;8.894;2023-03-31T04:05:42;4.90;;;1.97;;
7807;SDS011;3949;49.254;8.894;2023-03-31T04:08:08;3.00;;;1.90;;
7807;SDS011;3949;49.254;8.894;2023-03-31T04:10:34;3.17;;;2.00;;
7807;SDS011;3949;49.254;8.894;2023-03-31T04:13:00;3.80;;;2.30;;
7807;SDS011;3949;49.254;8.894;2023-03-31T04:15:26;2.77;;;2.17;;
7807;SDS011;3949;49.254;8.894;2023-03-31T04:17:52;5.20;;;2.13;;
7807;SDS011;3949;49.254;8.894;2023-03-31T04:20:19;6.40;;;2.20;;
7807;SDS011;3949;49.254;8.894;2023-03-31T04:22:45;7.60;;;2.10;;
7807;SDS011;3949;49.254;8.894;2023-03-31T04:25:14;5.67;;;2.20;;
7807;SDS011;3949;49.254;8.894;2023-03-31T04:27:44;2.83;;;1.73;;
7807;SDS011;3949;49.254;8.894;2023-03-31T04:30:23;4.90;;;2.47;;
7807;SDS011;3949;49.254;8.894;2023-03-31T04:32:56;3.40;;;2.07;;
7807;SDS011;3949;49.254;8.894;2023-03-31T04:35:23;5.10;;;2.67;;
7807;SDS011;3949;49.254;8.894;2023-03-31T04:37:50;5.77;;;2.50;;
7807;SDS011;3949;49.254;8.894;2023-03-31T04:40:16;8.80;;;2.57;;
7807;SDS011;3949;49.254;8.894;2023-03-31T04:42:43;5.03;;;2.13;;
7807;SDS011;3949;49.254;8.894;2023-03-31T04:45:10;4.50;;;2.33;;
7807;SDS011;3949;49.254;8.894;2023-03-31T04:47:36;4.10;;;2.23;;
7807;SDS011;3949;49.254;8.894;2023-03-31T04:50:02;4.83;;;2.63;;
7807;SDS011;3949;49.254;8.894;2023-03-31T04:52:28;4.77;;;2.17;;
7807;SDS011;3949;49.254;8.894;2023-03-31T04:54:54;3.47;;;2.03;;
7807;SDS011;3949;49.254;8.894;2023-03-31T04:57:20;4.40;;;2.00;;
7807;SDS011;3949;49.254;8.894;2023-03-31T04:59:46;4.63;;;2.17;;
7807;SDS011;3949;49.254;8.894;2023-03-31T05:02:12;4.30;;;2.40;;
7807;SDS011;3949;49.254;8.894;2023-03-31T05:04:39;3.07;;;2.33;;
7807;SDS011;3949;49.254;8.894;2023-03-31T05:07:05;4.23;;;2.77;;
7807;SDS011;3949;49.254;8.894;2023-03-31T05:09:31;4.83;;;2.07;;
7807;SDS011;3949;49.254;8.894;2023-03-31T05:11:57;4.63;;;2.20;;
7807;SDS011;3949;49.254;8.894;2023-03-31T05:14:23;4.80;;;2.37;;
7807;SDS011;3949;49.254;8.894;2023-03-31T05:16:49;3.17;;;2.47;;
7807;SDS011;3949;49.254;8.894;2023-03-31T05:19:15;4.43;;;2.40;;
7807;SDS011;3949;49.254;8.894;2023-03-31T05:21:42;5.67;;;2.30;;
7807;SDS011;3949;49.254;8.894;2023-03-31T05:24:08;2.93;;;2.23;;
7807;SDS011;3949;49.254;8.894;2023-03-31T05:26:34;3.67;;;2.13;;
7807;SDS011;3949;49.254;8.894;2023-03-31T05:29:00;7.27;;;2.40;;
7807;SDS011;3949;49.254;8.894;2023-03-31T05:31:26;5.53;;;2.77;;
7807;SDS011;3949;49.254;8.894;2023-03-31T05:33:52;3.97;;;2.80;;
7807;SDS011;3949;49.254;8.894;2023-03-31T05:36:18;4.20;;;2.70;;
7807;SDS011;3949;49.254;8.894;2023-03-31T05:38:47;5.17;;;2.70;;
7807;SDS011;3949;49.254;8.894;2023-03-31T05:41:13;5.03;;;2.90;;
7807;SDS011;3949;49.254;8.894;2023-03-31T05:43:40;7.57;;;3.47;;
7807;SDS011;3949;49.254;8.894;2023-03-31T05:46:07;6.37;;;3.00;;
7807;SDS011;3949;49.254;8.894;2023-03-31T05:48:33;5.13;;;3.50;;
7807;SDS011;3949;49.254;8.894;2023-03-31T05:51:01;9.70;;;4.00;;
7807;SDS011;3949;49.254;8.894;2023-03-31T05:53:27;6.00;;;3.40;;
7807;SDS011;3949;49.254;8.894;2023-03-31T05:55:57;6.90;;;3.63;;
7807;SDS011;3949;49.254;8.894;2023-03-31T05:58:23;5.50;;;3.50;;
7807;SDS011;3949;49.254;8.894;2023-03-31T06:00:49;9.07;;;3.50;;
7807;SDS011;3949;49.254;8.894;2023-03-31T06:03:17;7.60;;;3.57;;
7807;SDS011;3949;49.254;8.894;2023-03-31T06:05:47;8.63;;;3.63;;
7807;SDS011;3949;49.254;8.894;2023-03-31T06:08:13;7.13;;;3.97;;
7807;SDS011;3949;49.254;8.894;2023-03-31T06:10:39;7.73;;;4.13;;
7807;SDS011;3949;49.254;8.894;2023-03-31T06:13:06;8.43;;;4.43;;
7807;SDS011;3949;49.254;8.894;2023-03-31T06:15:32;7.03;;;3.80;;
7807;SDS011;3949;49.254;8.894;2023-03-31T06:17:58;5.17;;;3.70;;
7807;SDS011;3949;49.254;8.894;2023-03-31T06:20:24;11.07;;;4.47;;
7807;SDS011;3949;49.254;8.894;2023-03-31T06:22:50;9.70;;;4.50;;
7807;SDS011;3949;49.254;8.894;2023-03-31T06:25:16;10.97;;;4.80;;
7807;SDS011;3949;49.254;8.894;2023-03-31T06:27:42;11.20;;;4.40;;
7807;SDS011;3949;49.254;8.894;2023-03-31T06:30:08;6.37;;;4.50;;
7807;SDS011;3949;49.254;8.894;2023-03-31T06:32:35;7.80;;;4.40;;
7807;SDS011;3949;49.254;8.894;2023-03-31T06:35:01;8.43;;;4.87;;
7807;SDS011;3949;49.254;8.894;2023-03-31T06:37:27;8.67;;;4.87;;
7807;SDS011;3949;49.254;8.894;2023-03-31T06:39:52;9.80;;;4.77;;
7807;SDS011;3949;49.254;8.894;2023-03-31T06:42:19;8.73;;;5.07;;
7807;SDS011;3949;49.254;8.894;2023-03-31T06:44:45;7.97;;;4.90;;
7807;SDS011;3949;49.254;8.894;2023-03-31T06:47:11;7.97;;;4.80;;
7807;SDS011;3949;49.254;8.894;2023-03-31T06:49:37;8.10;;;4.63;;
7807;SDS011;3949;49.254;8.894;2023-03-31T06:52:03;8.00;;;4.47;;
7807;SDS011;3949;49.254;8.894;2023-03-31T06:54:29;7.83;;;4.63;;
7807;SDS011;3949;49.254;8.894;2023-03-31T06:56:55;8.97;;;5.17;;
7807;SDS011;3949;49.254;8.894;2023-03-31T06:59:21;8.53;;;4.83;;
7807;SDS011;3949;49.254;8.894;2023-03-31T07:01:47;8.07;;;5.03;;
7807;SDS011;3949;49.254;8.894;2023-03-31T07:04:14;11.47;;;5.13;;
7807;SDS011;3949;49.254;8.894;2023-03-31T07:06:40;11.90;;;4.57;;
7807;SDS011;3949;49.254;8.894;2023-03-31T07:09:06;6.60;;;4.20;;
7807;SDS011;3949;49.254;8.894;2023-03-31T07:11:32;5.13;;;4.03;;
7807;SDS011;3949;49.254;8.894;2023-03-31T07:13:58;5.63;;;4.13;;
7807;SDS011;3949;49.254;8.894;2023-03-31T07:16:24;6.30;;;3.60;;
7807;SDS011;3949;49.254;8.894;2023-03-31T07:18:50;8.37;;;3.80;;
7807;SDS011;3949;49.254;8.894;2023-03-31T07:21:18;4.87;;;3.47;;
7807;SDS011;3949;49.254;8.894;2023-03-31T07:23:45;5.27;;;3.50;;
7807;SDS011;3949;49.254;8.894;2023-03-31T07:26:11;5.40;;;3.47;;
7807;SDS011;3949;49.254;8.894;2023-03-31T07:28:37;6.10;;;3.70;;
7807;SDS011;3949;49.254;8.894;2023-03-31T07:31:08;5.27;;;3.50;;
7807;SDS011;3949;49.254;8.894;2023-03-31T07:33:34;5.83;;;3.40;;
7807;SDS011;3949;49.254;8.894;2023-03-31T07:36:03;5.27;;;2.70;;
7807;SDS011;3949;49.254;8.894;2023-03-31T07:38:29;3.17;;;2.70;;
7807;SDS011;3949;49.254;8.894;2023-03-31T07:40:55;3.13;;;2.70;;
7807;SDS011;3949;49.254;8.894;2023-03-31T07:43:21;4.57;;;2.90;;
7807;SDS011;3949;49.254;8.894;2023-03-31T07:45:47;3.77;;;2.77;;
7807;SDS011;3949;49.254;8.894;2023-03-31T07:48:14;3.67;;;2.77;;
7807;SDS011;3949;49.254;8.894;2023-03-31T07:50:40;5.40;;;2.90;;
7807;SDS011;3949;49.254;8.894;2023-03-31T07:53:06;3.30;;;2.63;;
7807;SDS011;3949;49.254;8.894;2023-03-31T07:55:32;3.37;;;2.70;;
7807;SDS011;3949;49.254;8.894;2023-03-31T07:57:58;4.17;;;2.73;;
7807;SDS011;3949;49.254;8.894;2023-03-31T08:00:24;4.67;;;3.00;;
7807;SDS011;3949;49.254;8.894;2023-03-31T08:02:51;4.47;;;2.73;;
7807;SDS011;3949;49.254;8.894;2023-03-31T08:05:17;4.73;;;2.73;;
7807;SDS011;3949;49.254;8.894;2023-03-31T08:07:44;3.70;;;2.53;;
7807;SDS011;3949;49.254;8.894;2023-03-31T08:10:12;3.97;;;2.63;;
7807;SDS011;3949;49.254;8.894;2023-03-31T08:12:38;3.17;;;2.57;;
7807;SDS011;3949;49.254;8.894;2023-03-31T08:15:05;4.00;;;2.50;;
7807;SDS011;3949;49.254;8.894;2023-03-31T08:17:31;2.50;;;2.30;;
7807;SDS011;3949;49.254;8.894;2023-03-31T08:19:57;4.40;;;2.47;;
7807;SDS011;3949;49.254;8.894;2023-03-31T08:22:23;4.70;;;2.50;;
7807;SDS011;3949;49.254;8.894;2023-03-31T08:24:49;4.93;;;2.50;;
7807;SDS011;3949;49.254;8.894;2023-03-31T08:27:18;2.50;;;2.00;;
7807;SDS011;3949;49.254;8.894;2023-03-31T08:29:44;3.27;;;2.10;;
7807;SDS011;3949;49.254;8.894;2023-03-31T08:32:10;3.57;;;2.10;;
7807;SDS011;3949;49.254;8.894;2023-03-31T08:34:36;2.73;;;2.00;;
7807;SDS011;3949;49.254;8.894;2023-03-31T08:37:02;4.33;;;2.03;;
7807;SDS011;3949;49.254;8.894;2023-03-31T08:39:28;3.50;;;1.80;;
7807;SDS011;3949;49.254;8.894;2023-03-31T08:41:59;3.90;;;2.00;;
7807;SDS011;3949;49.254;8.894;2023-03-31T08:46:52;3.67;;;1.80;;
7807;SDS011;3949;49.254;8.894;2023-03-31T08:49:20;2.17;;;1.53;;
7807;SDS011;3949;49.254;8.894;2023-03-31T08:51:48;4.47;;;2.53;;
7807;SDS011;3949;49.254;8.894;2023-03-31T08:54:16;3.37;;;2.27;;
7807;SDS011;3949;49.254;8.894;2023-03-31T08:56:44;3.60;;;2.13;;
7807;SDS011;3949;49.254;8.894;2023-03-31T08:59:25;3.63;;;1.90;;
7807;SDS011;3949;49.254;8.894;2023-03-31T09:12:02;3.23;;;1.90;;
7807;SDS011;3949;49.254;8.894;2023-03-31T09:17:46;4.17;;;1.63;;
7807;SDS011;3949;49.254;8.894;2023-03-31T09:19:49;3.20;;;1.80;;
7807;SDS011;3949;49.254;8.894;2023-03-31T09:22:19;3.67;;;1.73;;
7807;SDS011;3949;49.254;8.894;2023-03-31T09:24:51;4.07;;;1.70;;
7807;SDS011;3949;49.254;8.894;2023-03-31T09:27:19;3.80;;;1.70;;
7807;SDS011;3949;49.254;8.894;2023-03-31T09:29:48;3.63;;;1.80;;
7807;SDS011;3949;49.254;8.894;2023-03-31T09:32:17;5.00;;;2.10;;
7807;SDS011;3949;49.254;8.894;2023-03-31T09:34:43;2.77;;;1.63;;
7807;SDS011;3949;49.254;8.894;2023-03-31T09:37:10;6.50;;;1.77;;
7807;SDS011;3949;49.254;8.894;2023-03-31T09:39:37;3.57;;;1.50;;
7807;SDS011;3949;49.254;8.894;2023-03-31T09:42:03;3.97;;;2.07;;
7807;SDS011;3949;49.254;8.894;2023-03-31T09:46:56;4.57;;;1.67;;
7807;SDS011;3949;49.254;8.894;2023-03-31T09:49:24;3.80;;;2.13;;
7807;SDS011;3949;49.254;8.894;2023-03-31T09:52:05;3.80;;;1.93;;
7807;SDS011;3949;49.254;8.894;2023-03-31T09:55:08;5.50;;;2.20;;
7807;SDS011;3949;49.254;8.894;2023-03-31T09:57:26;4.63;;;2.03;;
7807;SDS011;3949;49.254;8.894;2023-03-31T09:59:52;6.00;;;2.93;;
7807;SDS011;3949;49.254;8.894;2023-03-31T10:02:32;4.93;;;2.53;;
7807;SDS011;3949;49.254;8.894;2023-03-31T10:04:59;3.67;;;2.10;;
7807;SDS011;3949;49.254;8.894;2023-03-31T10:07:26;5.77;;;2.47;;
7807;SDS011;3949;49.254;8.894;2023-03-31T10:09:53;4.27;;;1.80;;
7807;SDS011;3949;49.254;8.894;2023-03-31T10:12:20;5.17;;;2.33;;
7807;SDS011;3949;49.254;8.894;2023-03-31T10:14:49;6.13;;;2.10;;
7807;SDS011;3949;49.254;8.894;2023-03-31T10:17:16;5.70;;;2.13;;
7807;SDS011;3949;49.254;8.894;2023-03-31T10:20:04;5.60;;;2.00;;
7807;SDS011;3949;49.254;8.894;2023-03-31T10:22:31;5.27;;;2.10;;
7807;SDS011;3949;49.254;8.894;2023-03-31T10:25:15;5.77;;;2.10;;
7807;SDS011;3949;49.254;8.894;2023-03-31T10:27:41;4.87;;;2.03;;
7807;SDS011;3949;49.254;8.894;2023-03-31T10:30:11;3.97;;;1.90;;
7807;SDS011;3949;49.254;8.894;2023-03-31T10:32:38;5.13;;;1.80;;
7807;SDS011;3949;49.254;8.894;2023-03-31T10:35:07;3.50;;;1.80;;
7807;SDS011;3949;49.254;8.894;2023-03-31T10:37:37;4.47;;;1.83;;
7807;SDS011;3949;49.254;8.894;2023-03-31T10:40:04;4.33;;;2.20;;
7807;SDS011;3949;49.254;8.894;2023-03-31T10:42:37;5.80;;;1.97;;
7807;SDS011;3949;49.254;8.894;2023-03-31T10:47:36;5.60;;;2.07;;
7807;SDS011;3949;49.254;8.894;2023-03-31T10:50:05;5.97;;;2.27;;
7807;SDS011;3949;49.254;8.894;2023-03-31T10:52:42;5.33;;;1.87;;
7807;SDS011;3949;49.254;8.894;2023-03-31T10:55:11;6.37;;;2.10;;
7807;SDS011;3949;49.254;8.894;2023-03-31T11:05:10;6.97;;;2.10;;
7807;SDS011;3949;49.254;8.894;2023-03-31T11:15:40;3.83;;;0.93;;
7807;SDS011;3949;49.254;8.894;2023-03-31T11:23:42;3.57;;;0.93;;
7807;SDS011;3949;49.254;8.894;2023-03-31T11:26:20;2.10;;;0.90;;
7807;SDS011;3949;49.254;8.894;2023-03-31T11:29:01;1.60;;;1.03;;
7807;SDS011;3949;49.254;8.894;2023-03-31T11:36:46;3.77;;;1.20;;
7807;SDS011;3949;49.254;8.894;2023-03-31T11:39:17;3.33;;;1.40;;
7807;SDS011;3949;49.254;8.894;2023-03-31T11:41:49;3.57;;;1.60;;
7807;SDS011;3949;49.254;8.894;2023-03-31T11:44:17;3.17;;;1.70;;
7807;SDS011;3949;49.254;8.894;2023-03-31T11:54:09;4.97;;;1.30;;
7807;SDS011;3949;49.254;8.894;2023-03-31T11:56:38;4.67;;;1.20;;
7807;SDS011;3949;49.254;8.894;2023-03-31T11:59:05;2.50;;;1.13;;
7807;SDS011;3949;49.254;8.894;2023-03-31T12:06:30;2.73;;;1.33;;
7807;SDS011;3949;49.254;8.894;2023-03-31T12:14:20;3.37;;;1.73;;
7807;SDS011;3949;49.254;8.894;2023-03-31T12:16:48;2.47;;;1.67;;
7807;SDS011;3949;49.254;8.894;2023-03-31T12:19:17;2.53;;;1.30;;
7807;SDS011;3949;49.254;8.894;2023-03-31T12:21:50;2.17;;;1.60;;
7807;SDS011;3949;49.254;8.894;2023-03-31T12:24:17;6.60;;;1.20;;
7807;SDS011;3949;49.254;8.894;2023-03-31T12:29:39;2.77;;;1.33;;
7807;SDS011;3949;49.254;8.894;2023-03-31T12:32:10;2.43;;;1.30;;
7807;SDS011;3949;49.254;8.894;2023-03-31T12:34:41;2.03;;;0.87;;
7807;SDS011;3949;49.254;8.894;2023-03-31T12:37:31;2.40;;;0.93;;
7807;SDS011;3949;49.254;8.894;2023-03-31T12:47:49;2.43;;;1.40;;
7807;SDS011;3949;49.254;8.894;2023-03-31T12:50:22;3.03;;;1.60;;
7807;SDS011;3949;49.254;8.894;2023-03-31T12:53:00;2.83;;;1.10;;
7807;SDS011;3949;49.254;8.894;2023-03-31T13:01:00;2.50;;;1.10;;
7807;SDS011;3949;49.254;8.894;2023-03-31T13:04:16;2.93;;;1.50;;
7807;SDS011;3949;49.254;8.894;2023-03-31T13:11:17;3.03;;;1.47;;
7807;SDS011;3949;49.254;8.894;2023-03-31T13:13:44;3.90;;;2.23;;
7807;SDS011;3949;49.254;8.894;2023-03-31T13:16:10;3.57;;;1.33;;
7807;SDS011;3949;49.254;8.894;2023-03-31T13:18:43;2.70;;;1.30;;
7807;SDS011;3949;49.254;8.894;2023-03-31T13:21:15;2.27;;;1.00;;
7807;SDS011;3949;49.254;8.894;2023-03-31T13:23:42;2.57;;;1.00;;
7807;SDS011;3949;49.254;8.894;2023-03-31T13:34:25;3.33;;;2.00;;
7807;SDS011;3949;49.254;8.894;2023-03-31T13:52:56;3.27;;;1.27;;
7807;SDS011;3949;49.254;8.894;2023-03-31T13:55:35;2.53;;;1.33;;
7807;SDS011;3949;49.254;8.894;2023-03-31T14:00:48;3.37;;;1.50;;
7807;SDS011;3949;49.254;8.894;2023-03-31T14:03:26;1.37;;;1.07;;
7807;SDS011;3949;49.254;8.894;2023-03-31T14:05:56;3.33;;;1.23;;
7807;SDS011;3949;49.254;8.894;2023-03-31T14:10:50;2.63;;;1.13;;
7807;SDS011;3949;49.254;8.894;2023-03-31T14:13:17;2.13;;;1.30;;
7807;SDS011;3949;49.254;8.894;2023-03-31T14:18:14;1.60;;;1.20;;
7807;SDS011;3949;49.254;8.894;2023-03-31T14:20:45;2.90;;;1.20;;
7807;SDS011;3949;49.254;8.894;2023-03-31T14:25:52;2.40;;;1.00;;
7807;SDS011;3949;49.254;8.894;2023-03-31T14:38:45;2.57;;;1.37;;
7807;SDS011;3949;49.254;8.894;2023-03-31T14:41:15;2.40;;;1.37;;
7807;SDS011;3949;49.254;8.894;2023-03-31T14:43:45;3.70;;;1.63;;
7807;SDS011;3949;49.254;8.894;2023-03-31T14:46:12;4.30;;;1.60;;
7807;SDS011;3949;49.254;8.894;2023-03-31T14:48:44;3.80;;;1.23;;
7807;SDS011;3949;49.254;8.894;2023-03-31T14:51:13;4.10;;;1.30;;
7807;SDS011;3949;49.254;8.894;2023-03-31T14:53:39;3.23;;;1.33;;
7807;SDS011;3949;49.254;8.894;2023-03-31T14:56:08;4.13;;;1.50;;
7807;SDS011;3949;49.254;8.894;2023-03-31T14:58:43;2.67;;;1.57;;
7807;SDS011;3949;49.254;8.894;2023-03-31T15:01:13;1.97;;;1.20;;
7807;SDS011;3949;49.254;8.894;2023-03-31T15:03:41;4.30;;;1.47;;
7807;SDS011;3949;49.254;8.894;2023-03-31T15:06:07;6.27;;;1.90;;
7807;SDS011;3949;49.254;8.894;2023-03-31T15:08:34;3.27;;;1.23;;
7807;SDS011;3949;49.254;8.894;2023-03-31T15:11:02;5.37;;;1.87;;
7807;SDS011;3949;49.254;8.894;2023-03-31T15:13:46;5.73;;;2.37;;
7807;SDS011;3949;49.254;8.894;2023-03-31T15:16:29;2.63;;;1.10;;
7807;SDS011;3949;49.254;8.894;2023-03-31T15:18:56;4.03;;;1.20;;
7807;SDS011;3949;49.254;8.894;2023-03-31T15:21:23;4.03;;;2.50;;
7807;SDS011;3949;49.254;8.894;2023-03-31T15:23:53;1.77;;;1.67;;
7807;SDS011;3949;49.254;8.894;2023-03-31T15:26:21;2.47;;;1.30;;
7807;SDS011;3949;49.254;8.894;2023-03-31T15:28:55;5.77;;;3.63;;
7807;SDS011;3949;49.254;8.894;2023-03-31T15:31:22;4.23;;;1.80;;
7807;SDS011;3949;49.254;8.894;2023-03-31T15:33:51;2.73;;;1.27;;
7807;SDS011;3949;49.254;8.894;2023-03-31T15:36:17;1.27;;;0.90;;
7807;SDS011;3949;49.254;8.894;2023-03-31T15:38:45;2.20;;;0.97;;
7807;SDS011;3949;49.254;8.894;2023-03-31T15:41:12;2.20;;;0.90;;
7807;SDS011;3949;49.254;8.894;2023-03-31T15:46:10;3.40;;;2.40;;
7807;SDS011;3949;49.254;8.894;2023-03-31T15:48:48;2.23;;;1.20;;
7807;SDS011;3949;49.254;8.894;2023-03-31T15:53:48;2.47;;;1.40;;
7807;SDS011;3949;49.254;8.894;2023-03-31T15:59:00;1.73;;;1.30;;
7807;SDS011;3949;49.254;8.894;2023-03-31T16:01:28;2.50;;;0.90;;
7807;SDS011;3949;49.254;8.894;2023-03-31T16:03:56;2.50;;;1.37;;
7807;SDS011;3949;49.254;8.894;2023-03-31T16:09:17;2.03;;;0.83;;
7807;SDS011;3949;49.254;8.894;2023-03-31T16:11:51;1.70;;;0.90;;
7807;SDS011;3949;49.254;8.894;2023-03-31T16:14:37;2.03;;;0.80;;
7807;SDS011;3949;49.254;8.894;2023-03-31T16:17:09;3.57;;;1.37;;
7807;SDS011;3949;49.254;8.894;2023-03-31T16:19:40;3.83;;;0.97;;
7807;SDS011;3949;49.254;8.894;2023-03-31T16:22:09;1.97;;;1.77;;
7807;SDS011;3949;49.254;8.894;2023-03-31T16:24:38;3.67;;;2.07;;
7807;SDS011;3949;49.254;8.894;2023-03-31T16:27:04;4.53;;;2.10;;
7807;SDS011;3949;49.254;8.894;2023-03-31T16:29:33;3.57;;;1.80;;
7807;SDS011;3949;49.254;8.894;2023-03-31T16:32:10;3.87;;;2.20;;
7807;SDS011;3949;49.254;8.894;2023-03-31T16:37:21;2.40;;;1.40;;
7807;SDS011;3949;49.254;8.894;2023-03-31T16:39:47;2.67;;;1.60;;
7807;SDS011;3949;49.254;8.894;2023-03-31T16:42:13;2.87;;;1.37;;
7807;SDS011;3949;49.254;8.894;2023-03-31T16:44:39;1.77;;;0.83;;
7807;SDS011;3949;49.254;8.894;2023-03-31T16:47:05;1.67;;;0.80;;
7807;SDS011;3949;49.254;8.894;2023-03-31T16:49:32;2.43;;;0.63;;
7807;SDS011;3949;49.254;8.894;2023-03-31T16:51:58;2.50;;;0.97;;
7807;SDS011;3949;49.254;8.894;2023-03-31T16:54:24;2.30;;;0.60;;
7807;SDS011;3949;49.254;8.894;2023-03-31T16:56:50;1.43;;;0.60;;
7807;SDS011;3949;49.254;8.894;2023-03-31T16:59:16;2.93;;;1.87;;
7807;SDS011;3949;49.254;8.894;2023-03-31T17:01:42;1.13;;;0.67;;
7807;SDS011;3949;49.254;8.894;2023-03-31T17:04:09;0.80;;;0.63;;
7807;SDS011;3949;49.254;8.894;2023-03-31T17:06:36;1.23;;;0.60;;
7807;SDS011;3949;49.254;8.894;2023-03-31T17:09:02;1.10;;;0.50;;
7807;SDS011;3949;49.254;8.894;2023-03-31T17:11:28;0.80;;;0.80;;
7807;SDS011;3949;49.254;8.894;2023-03-31T17:13:54;1.47;;;0.40;;
7807;SDS011;3949;49.254;8.894;2023-03-31T17:16:20;0.37;;;0.37;;
7807;SDS011;3949;49.254;8.894;2023-03-31T17:18:47;1.00;;;0.60;;
7807;SDS011;3949;49.254;8.894;2023-03-31T17:21:14;0.73;;;0.60;;
7807;SDS011;3949;49.254;8.894;2023-03-31T17:23:43;1.07;;;0.40;;
7807;SDS011;3949;49.254;8.894;2023-03-31T17:26:10;2.63;;;1.90;;
7807;SDS011;3949;49.254;8.894;2023-03-31T17:28:36;1.90;;;0.77;;
7807;SDS011;3949;49.254;8.894;2023-03-31T17:31:09;3.47;;;2.07;;
7807;SDS011;3949;49.254;8.894;2023-03-31T17:33:35;1.53;;;0.73;;
7807;SDS011;3949;49.254;8.894;2023-03-31T17:36:01;1.40;;;0.60;;
7807;SDS011;3949;49.254;8.894;2023-03-31T17:38:27;0.97;;;0.50;;
7807;SDS011;3949;49.254;8.894;2023-03-31T17:40:53;1.00;;;0.90;;
7807;SDS011;3949;49.254;8.894;2023-03-31T17:43:20;1.70;;;0.60;;
7807;SDS011;3949;49.254;8.894;2023-03-31T17:45:46;1.17;;;0.80;;
7807;SDS011;3949;49.254;8.894;2023-03-31T17:48:12;1.20;;;0.67;;
7807;SDS011;3949;49.254;8.894;2023-03-31T17:50:40;1.73;;;0.70;;
7807;SDS011;3949;49.254;8.894;2023-03-31T17:53:06;1.17;;;0.57;;
7807;SDS011;3949;49.254;8.894;2023-03-31T17:55:34;1.70;;;0.90;;
7807;SDS011;3949;49.254;8.894;2023-03-31T17:58:00;1.60;;;1.00;;
7807;SDS011;3949;49.254;8.894;2023-03-31T18:00:26;1.17;;;0.67;;
7807;SDS011;3949;49.254;8.894;2023-03-31T18:02:52;2.70;;;1.00;;
7807;SDS011;3949;49.254;8.894;2023-03-31T18:05:19;3.33;;;0.80;;
7807;SDS011;3949;49.254;8.894;2023-03-31T18:07:45;2.60;;;1.07;;
7807;SDS011;3949;49.254;8.894;2023-03-31T18:10:11;2.40;;;2.20;;
7807;SDS011;3949;49.254;8.894;2023-03-31T18:12:37;2.43;;;0.73;;
7807;SDS011;3949;49.254;8.894;2023-03-31T18:15:04;1.43;;;0.60;;
7807;SDS011;3949;49.254;8.894;2023-03-31T18:17:31;1.60;;;0.90;;
7807;SDS011;3949;49.254;8.894;2023-03-31T18:19:57;2.00;;;0.90;;
7807;SDS011;3949;49.254;8.894;2023-03-31T18:22:23;0.77;;;0.60;;
7807;SDS011;3949;49.254;8.894;2023-03-31T18:24:49;3.20;;;1.57;;
7807;SDS011;3949;49.254;8.894;2023-03-31T18:27:15;2.80;;;1.30;;
7807;SDS011;3949;49.254;8.894;2023-03-31T18:29:41;2.23;;;1.03;;
7807;SDS011;3949;49.254;8.894;2023-03-31T18:32:07;1.33;;;0.80;;
7807;SDS011;3949;49.254;8.894;2023-03-31T18:34:33;1.57;;;1.00;;
7807;SDS011;3949;49.254;8.894;2023-03-31T18:37:00;1.70;;;1.10;;
7807;SDS011;3949;49.254;8.894;2023-03-31T18:39:27;1.63;;;1.07;;